Terminal Aerodrome Forecast
Issued by NWS Glasgow, MT

Home | Current Version | Previous Version | Text Only | Print | Product List | Glossary On
Versions: 1 2 3 4 5 6 7 8 9 10 11 12
000
FTUS45 KGGW 240522
TAFGGW
TAF
KGGW 240522Z 2406/2506 10016G23KT P6SM FEW200
     FM241800 13015G24KT P6SM SCT100 BKN150
     FM250300 13011KT P6SM VCTS SCT060CB BKN100=

USA.gov is the U.S. government's official web portal to all federal, state and local government web resources and services.